sensor_id;sensor_type;location;lat;lon;timestamp;P1;durP1;ratioP1;P2;durP2;ratioP2
5521;SDS011;2783;48.730;8.006;2022-08-25T00:01:04;6.55;;;2.60;;
5521;SDS011;2783;48.730;8.006;2022-08-25T00:03:33;4.82;;;2.15;;
5521;SDS011;2783;48.730;8.006;2022-08-25T00:05:59;6.40;;;1.95;;
5521;SDS011;2783;48.730;8.006;2022-08-25T00:08:24;5.70;;;2.53;;
5521;SDS011;2783;48.730;8.006;2022-08-25T00:10:50;5.07;;;2.50;;
5521;SDS011;2783;48.730;8.006;2022-08-25T00:13:15;3.72;;;2.17;;
5521;SDS011;2783;48.730;8.006;2022-08-25T00:15:41;3.97;;;2.40;;
5521;SDS011;2783;48.730;8.006;2022-08-25T00:18:06;5.32;;;2.05;;
5521;SDS011;2783;48.730;8.006;2022-08-25T00:20:32;6.82;;;2.85;;
5521;SDS011;2783;48.730;8.006;2022-08-25T00:22:57;4.10;;;1.83;;
5521;SDS011;2783;48.730;8.006;2022-08-25T00:25:22;4.95;;;2.38;;
5521;SDS011;2783;48.730;8.006;2022-08-25T00:27:48;3.65;;;2.38;;
5521;SDS011;2783;48.730;8.006;2022-08-25T00:30:15;5.57;;;2.40;;
5521;SDS011;2783;48.730;8.006;2022-08-25T00:32:41;5.15;;;2.00;;
5521;SDS011;2783;48.730;8.006;2022-08-25T00:35:07;3.97;;;2.25;;
5521;SDS011;2783;48.730;8.006;2022-08-25T00:37:33;6.38;;;2.30;;
5521;SDS011;2783;48.730;8.006;2022-08-25T00:39:59;4.45;;;2.72;;
5521;SDS011;2783;48.730;8.006;2022-08-25T00:42:24;4.47;;;2.38;;
5521;SDS011;2783;48.730;8.006;2022-08-25T00:44:50;6.25;;;2.40;;
5521;SDS011;2783;48.730;8.006;2022-08-25T00:47:16;4.65;;;2.60;;
5521;SDS011;2783;48.730;8.006;2022-08-25T00:49:44;5.93;;;2.55;;
5521;SDS011;2783;48.730;8.006;2022-08-25T00:54:59;3.92;;;2.17;;
5521;SDS011;2783;48.730;8.006;2022-08-25T00:57:43;6.57;;;2.45;;
5521;SDS011;2783;48.730;8.006;2022-08-25T01:00:23;3.42;;;2.10;;
5521;SDS011;2783;48.730;8.006;2022-08-25T01:02:52;5.85;;;2.33;;
5521;SDS011;2783;48.730;8.006;2022-08-25T01:05:18;4.10;;;2.60;;
5521;SDS011;2783;48.730;8.006;2022-08-25T01:07:44;3.33;;;2.25;;
5521;SDS011;2783;48.730;8.006;2022-08-25T01:10:10;5.25;;;2.17;;
5521;SDS011;2783;48.730;8.006;2022-08-25T01:12:37;4.45;;;2.47;;
5521;SDS011;2783;48.730;8.006;2022-08-25T01:15:04;4.78;;;2.65;;
5521;SDS011;2783;48.730;8.006;2022-08-25T01:17:50;6.40;;;2.58;;
5521;SDS011;2783;48.730;8.006;2022-08-25T01:20:17;5.30;;;2.47;;
5521;SDS011;2783;48.730;8.006;2022-08-25T01:22:45;4.63;;;2.38;;
5521;SDS011;2783;48.730;8.006;2022-08-25T01:25:29;6.28;;;2.47;;
5521;SDS011;2783;48.730;8.006;2022-08-25T01:28:05;5.93;;;2.78;;
5521;SDS011;2783;48.730;8.006;2022-08-25T01:30:31;4.55;;;2.28;;
5521;SDS011;2783;48.730;8.006;2022-08-25T01:32:56;4.40;;;2.80;;
5521;SDS011;2783;48.730;8.006;2022-08-25T01:35:22;4.40;;;2.72;;
5521;SDS011;2783;48.730;8.006;2022-08-25T01:37:48;7.70;;;2.70;;
5521;SDS011;2783;48.730;8.006;2022-08-25T01:40:13;4.07;;;2.38;;
5521;SDS011;2783;48.730;8.006;2022-08-25T01:45:17;5.95;;;2.58;;
5521;SDS011;2783;48.730;8.006;2022-08-25T01:47:43;5.03;;;2.60;;
5521;SDS011;2783;48.730;8.006;2022-08-25T01:50:08;8.20;;;2.63;;
5521;SDS011;2783;48.730;8.006;2022-08-25T01:52:44;4.25;;;2.72;;
5521;SDS011;2783;48.730;8.006;2022-08-25T01:55:25;4.07;;;2.42;;
5521;SDS011;2783;48.730;8.006;2022-08-25T01:57:50;8.30;;;2.78;;
5521;SDS011;2783;48.730;8.006;2022-08-25T02:00:16;4.72;;;2.63;;
5521;SDS011;2783;48.730;8.006;2022-08-25T02:02:44;3.83;;;2.42;;
5521;SDS011;2783;48.730;8.006;2022-08-25T02:05:10;6.80;;;2.70;;
5521;SDS011;2783;48.730;8.006;2022-08-25T02:07:38;4.28;;;2.55;;
5521;SDS011;2783;48.730;8.006;2022-08-25T02:10:05;5.65;;;2.47;;
5521;SDS011;2783;48.730;8.006;2022-08-25T02:12:32;5.30;;;2.60;;
5521;SDS011;2783;48.730;8.006;2022-08-25T02:14:59;4.47;;;2.78;;
5521;SDS011;2783;48.730;8.006;2022-08-25T02:17:26;4.53;;;2.45;;
5521;SDS011;2783;48.730;8.006;2022-08-25T02:19:52;4.60;;;2.95;;
5521;SDS011;2783;48.730;8.006;2022-08-25T02:22:19;6.25;;;2.55;;
5521;SDS011;2783;48.730;8.006;2022-08-25T02:24:45;6.20;;;2.70;;
5521;SDS011;2783;48.730;8.006;2022-08-25T02:27:12;4.93;;;3.28;;
5521;SDS011;2783;48.730;8.006;2022-08-25T02:29:37;5.57;;;3.22;;
5521;SDS011;2783;48.730;8.006;2022-08-25T02:32:02;4.22;;;2.67;;
5521;SDS011;2783;48.730;8.006;2022-08-25T02:34:28;4.35;;;2.60;;
5521;SDS011;2783;48.730;8.006;2022-08-25T02:36:53;5.95;;;2.55;;
5521;SDS011;2783;48.730;8.006;2022-08-25T02:39:19;4.65;;;2.80;;
5521;SDS011;2783;48.730;8.006;2022-08-25T02:41:44;5.40;;;3.08;;
5521;SDS011;2783;48.730;8.006;2022-08-25T02:44:10;3.28;;;2.15;;
5521;SDS011;2783;48.730;8.006;2022-08-25T02:46:37;5.22;;;2.88;;
5521;SDS011;2783;48.730;8.006;2022-08-25T02:49:03;5.43;;;2.97;;
5521;SDS011;2783;48.730;8.006;2022-08-25T02:51:30;4.60;;;2.88;;
5521;SDS011;2783;48.730;8.006;2022-08-25T02:53:56;5.20;;;2.97;;
5521;SDS011;2783;48.730;8.006;2022-08-25T02:56:24;7.43;;;2.85;;
5521;SDS011;2783;48.730;8.006;2022-08-25T02:58:51;5.10;;;2.70;;
5521;SDS011;2783;48.730;8.006;2022-08-25T03:01:17;4.03;;;2.80;;
5521;SDS011;2783;48.730;8.006;2022-08-25T03:03:42;4.68;;;2.67;;
5521;SDS011;2783;48.730;8.006;2022-08-25T03:06:10;4.45;;;2.92;;
5521;SDS011;2783;48.730;8.006;2022-08-25T03:08:37;6.35;;;3.03;;
5521;SDS011;2783;48.730;8.006;2022-08-25T03:11:03;7.20;;;2.70;;
5521;SDS011;2783;48.730;8.006;2022-08-25T03:13:30;7.13;;;2.83;;
5521;SDS011;2783;48.730;8.006;2022-08-25T03:15:57;7.18;;;3.03;;
5521;SDS011;2783;48.730;8.006;2022-08-25T03:18:26;5.38;;;2.35;;
5521;SDS011;2783;48.730;8.006;2022-08-25T03:20:52;14.13;;;3.58;;
5521;SDS011;2783;48.730;8.006;2022-08-25T03:23:18;6.57;;;3.15;;
5521;SDS011;2783;48.730;8.006;2022-08-25T03:25:43;5.45;;;2.90;;
5521;SDS011;2783;48.730;8.006;2022-08-25T03:28:28;7.93;;;3.45;;
5521;SDS011;2783;48.730;8.006;2022-08-25T03:30:57;4.60;;;2.85;;
5521;SDS011;2783;48.730;8.006;2022-08-25T03:33:24;5.53;;;2.85;;
5521;SDS011;2783;48.730;8.006;2022-08-25T03:35:50;8.98;;;3.90;;
5521;SDS011;2783;48.730;8.006;2022-08-25T03:38:16;4.97;;;3.08;;
5521;SDS011;2783;48.730;8.006;2022-08-25T03:40:41;4.75;;;2.65;;
5521;SDS011;2783;48.730;8.006;2022-08-25T03:43:07;3.90;;;2.50;;
5521;SDS011;2783;48.730;8.006;2022-08-25T03:45:32;5.25;;;3.05;;
5521;SDS011;2783;48.730;8.006;2022-08-25T03:47:58;4.80;;;2.72;;
5521;SDS011;2783;48.730;8.006;2022-08-25T03:50:23;5.78;;;3.05;;
5521;SDS011;2783;48.730;8.006;2022-08-25T03:52:52;7.03;;;3.03;;
5521;SDS011;2783;48.730;8.006;2022-08-25T03:55:19;4.82;;;3.00;;
5521;SDS011;2783;48.730;8.006;2022-08-25T03:57:47;5.78;;;3.45;;
5521;SDS011;2783;48.730;8.006;2022-08-25T04:00:12;7.05;;;3.13;;
5521;SDS011;2783;48.730;8.006;2022-08-25T04:02:38;5.30;;;2.95;;
5521;SDS011;2783;48.730;8.006;2022-08-25T04:05:04;6.47;;;2.92;;
5521;SDS011;2783;48.730;8.006;2022-08-25T04:07:30;10.25;;;3.30;;
5521;SDS011;2783;48.730;8.006;2022-08-25T04:09:55;4.80;;;2.55;;
5521;SDS011;2783;48.730;8.006;2022-08-25T04:12:21;5.18;;;3.20;;
5521;SDS011;2783;48.730;8.006;2022-08-25T04:14:47;16.05;;;3.92;;
5521;SDS011;2783;48.730;8.006;2022-08-25T04:17:12;7.35;;;3.00;;
5521;SDS011;2783;48.730;8.006;2022-08-25T04:19:38;5.45;;;3.38;;
5521;SDS011;2783;48.730;8.006;2022-08-25T04:22:04;6.55;;;3.10;;
5521;SDS011;2783;48.730;8.006;2022-08-25T04:24:30;5.88;;;3.40;;
5521;SDS011;2783;48.730;8.006;2022-08-25T04:26:55;5.60;;;3.47;;
5521;SDS011;2783;48.730;8.006;2022-08-25T04:29:23;5.47;;;3.10;;
5521;SDS011;2783;48.730;8.006;2022-08-25T04:31:50;6.25;;;3.05;;
5521;SDS011;2783;48.730;8.006;2022-08-25T04:34:17;4.85;;;3.08;;
5521;SDS011;2783;48.730;8.006;2022-08-25T04:36:45;7.63;;;3.28;;
5521;SDS011;2783;48.730;8.006;2022-08-25T04:39:11;6.25;;;3.47;;
5521;SDS011;2783;48.730;8.006;2022-08-25T04:41:37;4.60;;;2.95;;
5521;SDS011;2783;48.730;8.006;2022-08-25T04:44:03;5.60;;;3.67;;
5521;SDS011;2783;48.730;8.006;2022-08-25T04:46:30;5.80;;;2.85;;
5521;SDS011;2783;48.730;8.006;2022-08-25T04:48:58;9.52;;;3.47;;
5521;SDS011;2783;48.730;8.006;2022-08-25T04:51:26;6.68;;;3.15;;
5521;SDS011;2783;48.730;8.006;2022-08-25T04:53:54;6.75;;;3.17;;
5521;SDS011;2783;48.730;8.006;2022-08-25T04:56:23;6.38;;;3.05;;
5521;SDS011;2783;48.730;8.006;2022-08-25T04:58:51;6.07;;;3.28;;
5521;SDS011;2783;48.730;8.006;2022-08-25T05:01:19;9.70;;;3.58;;
5521;SDS011;2783;48.730;8.006;2022-08-25T05:03:47;8.98;;;3.72;;
5521;SDS011;2783;48.730;8.006;2022-08-25T05:06:18;4.97;;;2.97;;
5521;SDS011;2783;48.730;8.006;2022-08-25T05:08:43;6.90;;;3.47;;
5521;SDS011;2783;48.730;8.006;2022-08-25T05:11:10;3.95;;;2.30;;
5521;SDS011;2783;48.730;8.006;2022-08-25T05:13:38;10.25;;;3.28;;
5521;SDS011;2783;48.730;8.006;2022-08-25T05:16:04;6.10;;;2.95;;
5521;SDS011;2783;48.730;8.006;2022-08-25T05:18:30;5.15;;;2.78;;
5521;SDS011;2783;48.730;8.006;2022-08-25T05:21:01;4.97;;;3.03;;
5521;SDS011;2783;48.730;8.006;2022-08-25T05:23:29;6.68;;;3.00;;
5521;SDS011;2783;48.730;8.006;2022-08-25T05:25:55;4.72;;;2.70;;
5521;SDS011;2783;48.730;8.006;2022-08-25T05:28:27;6.60;;;3.20;;
5521;SDS011;2783;48.730;8.006;2022-08-25T05:30:56;5.70;;;3.05;;
5521;SDS011;2783;48.730;8.006;2022-08-25T05:33:22;5.63;;;3.10;;
5521;SDS011;2783;48.730;8.006;2022-08-25T05:35:48;6.78;;;3.17;;
5521;SDS011;2783;48.730;8.006;2022-08-25T05:38:13;8.73;;;4.05;;
5521;SDS011;2783;48.730;8.006;2022-08-25T05:40:38;8.52;;;3.60;;
5521;SDS011;2783;48.730;8.006;2022-08-25T05:43:04;6.45;;;3.00;;
5521;SDS011;2783;48.730;8.006;2022-08-25T05:45:29;7.15;;;3.17;;
5521;SDS011;2783;48.730;8.006;2022-08-25T05:47:55;5.13;;;2.92;;
5521;SDS011;2783;48.730;8.006;2022-08-25T05:50:22;5.03;;;2.97;;
5521;SDS011;2783;48.730;8.006;2022-08-25T05:52:48;5.50;;;2.95;;
5521;SDS011;2783;48.730;8.006;2022-08-25T05:55:14;5.70;;;3.13;;
5521;SDS011;2783;48.730;8.006;2022-08-25T05:57:40;9.77;;;3.33;;
5521;SDS011;2783;48.730;8.006;2022-08-25T06:00:06;5.10;;;3.10;;
5521;SDS011;2783;48.730;8.006;2022-08-25T06:02:33;6.75;;;3.00;;
5521;SDS011;2783;48.730;8.006;2022-08-25T06:05:12;6.90;;;3.25;;
5521;SDS011;2783;48.730;8.006;2022-08-25T06:07:41;5.32;;;2.60;;
5521;SDS011;2783;48.730;8.006;2022-08-25T06:10:08;8.23;;;3.47;;
5521;SDS011;2783;48.730;8.006;2022-08-25T06:12:37;7.25;;;3.35;;
5521;SDS011;2783;48.730;8.006;2022-08-25T06:15:05;4.95;;;2.47;;
5521;SDS011;2783;48.730;8.006;2022-08-25T06:17:31;9.15;;;3.05;;
5521;SDS011;2783;48.730;8.006;2022-08-25T06:19:59;6.18;;;2.83;;
5521;SDS011;2783;48.730;8.006;2022-08-25T06:22:24;7.32;;;2.85;;
5521;SDS011;2783;48.730;8.006;2022-08-25T06:24:50;4.47;;;2.83;;
5521;SDS011;2783;48.730;8.006;2022-08-25T06:27:16;7.38;;;2.90;;
5521;SDS011;2783;48.730;8.006;2022-08-25T06:29:42;5.47;;;2.80;;
5521;SDS011;2783;48.730;8.006;2022-08-25T06:32:08;5.00;;;2.75;;
5521;SDS011;2783;48.730;8.006;2022-08-25T06:34:33;6.95;;;3.08;;
5521;SDS011;2783;48.730;8.006;2022-08-25T06:36:58;5.45;;;2.65;;
5521;SDS011;2783;48.730;8.006;2022-08-25T06:39:24;4.82;;;2.40;;
5521;SDS011;2783;48.730;8.006;2022-08-25T06:41:50;5.60;;;2.85;;
5521;SDS011;2783;48.730;8.006;2022-08-25T06:44:19;4.35;;;2.53;;
5521;SDS011;2783;48.730;8.006;2022-08-25T06:46:45;6.03;;;2.47;;
5521;SDS011;2783;48.730;8.006;2022-08-25T06:49:11;7.22;;;2.60;;
5521;SDS011;2783;48.730;8.006;2022-08-25T06:51:36;11.50;;;3.70;;
5521;SDS011;2783;48.730;8.006;2022-08-25T06:54:03;5.82;;;2.35;;
5521;SDS011;2783;48.730;8.006;2022-08-25T06:56:30;4.38;;;2.45;;
5521;SDS011;2783;48.730;8.006;2022-08-25T06:58:56;4.18;;;2.60;;
5521;SDS011;2783;48.730;8.006;2022-08-25T07:01:22;4.53;;;2.58;;
5521;SDS011;2783;48.730;8.006;2022-08-25T07:03:51;6.60;;;2.70;;
5521;SDS011;2783;48.730;8.006;2022-08-25T07:06:19;6.03;;;2.28;;
5521;SDS011;2783;48.730;8.006;2022-08-25T07:08:45;3.97;;;2.00;;
5521;SDS011;2783;48.730;8.006;2022-08-25T07:11:11;6.03;;;2.65;;
5521;SDS011;2783;48.730;8.006;2022-08-25T07:13:38;3.25;;;2.20;;
5521;SDS011;2783;48.730;8.006;2022-08-25T07:16:05;4.10;;;2.35;;
5521;SDS011;2783;48.730;8.006;2022-08-25T07:18:31;5.20;;;2.20;;
5521;SDS011;2783;48.730;8.006;2022-08-25T07:20:57;4.75;;;2.00;;
5521;SDS011;2783;48.730;8.006;2022-08-25T07:23:23;5.72;;;2.08;;
5521;SDS011;2783;48.730;8.006;2022-08-25T07:25:50;4.10;;;2.08;;
5521;SDS011;2783;48.730;8.006;2022-08-25T07:28:17;5.45;;;2.60;;
5521;SDS011;2783;48.730;8.006;2022-08-25T07:30:43;4.10;;;1.88;;
5521;SDS011;2783;48.730;8.006;2022-08-25T07:33:09;3.92;;;2.25;;
5521;SDS011;2783;48.730;8.006;2022-08-25T07:35:35;4.75;;;1.92;;
5521;SDS011;2783;48.730;8.006;2022-08-25T07:38:02;2.53;;;1.50;;
5521;SDS011;2783;48.730;8.006;2022-08-25T07:40:29;3.92;;;1.88;;
5521;SDS011;2783;48.730;8.006;2022-08-25T07:42:58;3.95;;;2.13;;
5521;SDS011;2783;48.730;8.006;2022-08-25T07:45:26;3.80;;;2.08;;
5521;SDS011;2783;48.730;8.006;2022-08-25T07:47:57;3.97;;;2.17;;
5521;SDS011;2783;48.730;8.006;2022-08-25T07:50:25;5.47;;;2.30;;
5521;SDS011;2783;48.730;8.006;2022-08-25T07:52:51;3.90;;;2.33;;
5521;SDS011;2783;48.730;8.006;2022-08-25T07:55:17;5.00;;;2.58;;
5521;SDS011;2783;48.730;8.006;2022-08-25T07:57:42;7.38;;;2.85;;
5521;SDS011;2783;48.730;8.006;2022-08-25T08:00:09;5.70;;;2.10;;
5521;SDS011;2783;48.730;8.006;2022-08-25T08:02:37;3.90;;;2.22;;
5521;SDS011;2783;48.730;8.006;2022-08-25T08:05:03;6.15;;;2.42;;
5521;SDS011;2783;48.730;8.006;2022-08-25T08:07:30;3.85;;;2.35;;
5521;SDS011;2783;48.730;8.006;2022-08-25T08:09:56;6.20;;;1.98;;
5521;SDS011;2783;48.730;8.006;2022-08-25T08:12:22;14.13;;;2.72;;
5521;SDS011;2783;48.730;8.006;2022-08-25T08:14:49;4.80;;;1.98;;
5521;SDS011;2783;48.730;8.006;2022-08-25T08:17:16;4.63;;;2.22;;
5521;SDS011;2783;48.730;8.006;2022-08-25T08:19:42;4.95;;;2.15;;
5521;SDS011;2783;48.730;8.006;2022-08-25T08:22:08;3.10;;;1.98;;
5521;SDS011;2783;48.730;8.006;2022-08-25T08:24:35;4.50;;;2.20;;
5521;SDS011;2783;48.730;8.006;2022-08-25T08:27:07;4.90;;;2.13;;
5521;SDS011;2783;48.730;8.006;2022-08-25T08:29:33;6.28;;;2.65;;
5521;SDS011;2783;48.730;8.006;2022-08-25T08:32:00;5.03;;;2.17;;
5521;SDS011;2783;48.730;8.006;2022-08-25T08:34:27;4.70;;;2.10;;
5521;SDS011;2783;48.730;8.006;2022-08-25T08:36:53;4.70;;;1.88;;
5521;SDS011;2783;48.730;8.006;2022-08-25T08:39:19;4.47;;;1.95;;
5521;SDS011;2783;48.730;8.006;2022-08-25T08:55:39;5.32;;;2.20;;
5521;SDS011;2783;48.730;8.006;2022-08-25T08:58:19;5.07;;;2.45;;
5521;SDS011;2783;48.730;8.006;2022-08-25T09:00:51;5.93;;;2.15;;
5521;SDS011;2783;48.730;8.006;2022-08-25T09:03:30;5.07;;;1.98;;
5521;SDS011;2783;48.730;8.006;2022-08-25T09:06:11;4.77;;;2.13;;
5521;SDS011;2783;48.730;8.006;2022-08-25T09:08:42;3.72;;;1.60;;
5521;SDS011;2783;48.730;8.006;2022-08-25T09:14:07;3.28;;;1.70;;
5521;SDS011;2783;48.730;8.006;2022-08-25T09:16:45;5.18;;;1.80;;
5521;SDS011;2783;48.730;8.006;2022-08-25T09:28:08;4.10;;;1.88;;
5521;SDS011;2783;48.730;8.006;2022-08-25T09:33:27;3.17;;;1.77;;
5521;SDS011;2783;48.730;8.006;2022-08-25T09:35:55;3.22;;;1.63;;
5521;SDS011;2783;48.730;8.006;2022-08-25T09:38:23;4.38;;;1.50;;
5521;SDS011;2783;48.730;8.006;2022-08-25T09:40:52;3.25;;;1.77;;
5521;SDS011;2783;48.730;8.006;2022-08-25T09:43:22;2.83;;;1.80;;
5521;SDS011;2783;48.730;8.006;2022-08-25T09:46:15;6.03;;;2.00;;
5521;SDS011;2783;48.730;8.006;2022-08-25T09:48:56;2.88;;;1.50;;
5521;SDS011;2783;48.730;8.006;2022-08-25T09:51:33;3.13;;;1.50;;
5521;SDS011;2783;48.730;8.006;2022-08-25T09:54:04;2.40;;;1.80;;
5521;SDS011;2783;48.730;8.006;2022-08-25T09:56:52;3.92;;;1.77;;
5521;SDS011;2783;48.730;8.006;2022-08-25T10:06:59;5.22;;;1.90;;
5521;SDS011;2783;48.730;8.006;2022-08-25T10:09:33;5.38;;;1.92;;
5521;SDS011;2783;48.730;8.006;2022-08-25T10:12:15;3.60;;;2.03;;
5521;SDS011;2783;48.730;8.006;2022-08-25T10:14:45;4.97;;;2.13;;
5521;SDS011;2783;48.730;8.006;2022-08-25T10:17:21;3.97;;;1.92;;
5521;SDS011;2783;48.730;8.006;2022-08-25T10:19:50;3.78;;;2.03;;
5521;SDS011;2783;48.730;8.006;2022-08-25T10:22:22;5.00;;;2.38;;
5521;SDS011;2783;48.730;8.006;2022-08-25T10:24:56;4.65;;;2.00;;
5521;SDS011;2783;48.730;8.006;2022-08-25T10:38:31;3.92;;;2.38;;
5521;SDS011;2783;48.730;8.006;2022-08-25T10:41:01;3.38;;;1.95;;
5521;SDS011;2783;48.730;8.006;2022-08-25T10:43:41;5.95;;;2.67;;
5521;SDS011;2783;48.730;8.006;2022-08-25T10:51:54;4.15;;;2.08;;
5521;SDS011;2783;48.730;8.006;2022-08-25T11:00:06;4.57;;;1.92;;
5521;SDS011;2783;48.730;8.006;2022-08-25T11:02:42;3.60;;;2.00;;
5521;SDS011;2783;48.730;8.006;2022-08-25T11:08:52;4.55;;;1.90;;
5521;SDS011;2783;48.730;8.006;2022-08-25T11:11:06;3.55;;;1.90;;
5521;SDS011;2783;48.730;8.006;2022-08-25T11:13:45;3.88;;;2.00;;
5521;SDS011;2783;48.730;8.006;2022-08-25T11:16:34;3.85;;;1.90;;
5521;SDS011;2783;48.730;8.006;2022-08-25T11:26:56;2.88;;;1.45;;
5521;SDS011;2783;48.730;8.006;2022-08-25T11:29:24;3.00;;;1.70;;
5521;SDS011;2783;48.730;8.006;2022-08-25T11:31:56;3.78;;;2.08;;
5521;SDS011;2783;48.730;8.006;2022-08-25T11:34:23;3.42;;;1.58;;
5521;SDS011;2783;48.730;8.006;2022-08-25T11:36:51;3.63;;;1.73;;
5521;SDS011;2783;48.730;8.006;2022-08-25T11:51:01;2.92;;;1.42;;
5521;SDS011;2783;48.730;8.006;2022-08-25T11:56:03;2.90;;;1.63;;
5521;SDS011;2783;48.730;8.006;2022-08-25T11:58:50;2.35;;;1.35;;
5521;SDS011;2783;48.730;8.006;2022-08-25T12:06:36;3.60;;;1.60;;
5521;SDS011;2783;48.730;8.006;2022-08-25T12:09:33;2.35;;;1.33;;
5521;SDS011;2783;48.730;8.006;2022-08-25T12:17:42;2.63;;;1.50;;
5521;SDS011;2783;48.730;8.006;2022-08-25T12:20:08;3.22;;;1.90;;
5521;SDS011;2783;48.730;8.006;2022-08-25T12:25:26;3.17;;;1.67;;
5521;SDS011;2783;48.730;8.006;2022-08-25T12:30:21;3.90;;;2.13;;
5521;SDS011;2783;48.730;8.006;2022-08-25T12:38:39;4.20;;;1.90;;
5521;SDS011;2783;48.730;8.006;2022-08-25T12:41:23;2.72;;;1.60;;
5521;SDS011;2783;48.730;8.006;2022-08-25T12:43:52;5.53;;;2.38;;
5521;SDS011;2783;48.730;8.006;2022-08-25T12:46:34;3.70;;;1.30;;
5521;SDS011;2783;48.730;8.006;2022-08-25T12:54:44;2.28;;;1.50;;
5521;SDS011;2783;48.730;8.006;2022-08-25T12:57:58;2.60;;;1.27;;
5521;SDS011;2783;48.730;8.006;2022-08-25T13:08:29;3.42;;;1.63;;
5521;SDS011;2783;48.730;8.006;2022-08-25T13:14:15;3.58;;;1.67;;
5521;SDS011;2783;48.730;8.006;2022-08-25T13:16:56;3.47;;;1.67;;
5521;SDS011;2783;48.730;8.006;2022-08-25T13:19:23;4.60;;;1.88;;
5521;SDS011;2783;48.730;8.006;2022-08-25T13:21:50;2.53;;;1.50;;
5521;SDS011;2783;48.730;8.006;2022-08-25T13:24:27;2.65;;;1.67;;
5521;SDS011;2783;48.730;8.006;2022-08-25T13:27:00;4.65;;;1.50;;
5521;SDS011;2783;48.730;8.006;2022-08-25T13:29:30;3.85;;;1.92;;
5521;SDS011;2783;48.730;8.006;2022-08-25T13:31:58;4.07;;;1.75;;
5521;SDS011;2783;48.730;8.006;2022-08-25T13:34:33;3.55;;;1.70;;
5521;SDS011;2783;48.730;8.006;2022-08-25T13:37:08;4.60;;;1.88;;
5521;SDS011;2783;48.730;8.006;2022-08-25T13:40:10;3.22;;;1.88;;
5521;SDS011;2783;48.730;8.006;2022-08-25T13:42:47;4.50;;;1.90;;
5521;SDS011;2783;48.730;8.006;2022-08-25T13:45:15;4.53;;;1.85;;
5521;SDS011;2783;48.730;8.006;2022-08-25T13:47:43;4.00;;;1.75;;
5521;SDS011;2783;48.730;8.006;2022-08-25T13:52:45;4.90;;;2.10;;
5521;SDS011;2783;48.730;8.006;2022-08-25T13:55:18;2.28;;;1.52;;
5521;SDS011;2783;48.730;8.006;2022-08-25T13:57:46;3.42;;;1.70;;
5521;SDS011;2783;48.730;8.006;2022-08-25T14:00:12;3.75;;;1.90;;
5521;SDS011;2783;48.730;8.006;2022-08-25T14:02:49;4.00;;;1.80;;
5521;SDS011;2783;48.730;8.006;2022-08-25T14:08:06;4.80;;;2.00;;
5521;SDS011;2783;48.730;8.006;2022-08-25T14:11:00;3.92;;;2.00;;
5521;SDS011;2783;48.730;8.006;2022-08-25T14:13:30;4.47;;;1.90;;
5521;SDS011;2783;48.730;8.006;2022-08-25T14:16:05;3.38;;;1.92;;
5521;SDS011;2783;48.730;8.006;2022-08-25T14:18:52;3.90;;;2.25;;
5521;SDS011;2783;48.730;8.006;2022-08-25T14:21:21;3.40;;;1.85;;
5521;SDS011;2783;48.730;8.006;2022-08-25T14:23:50;5.88;;;2.00;;
5521;SDS011;2783;48.730;8.006;2022-08-25T14:26:17;4.80;;;1.95;;
5521;SDS011;2783;48.730;8.006;2022-08-25T14:28:42;4.03;;;1.92;;
5521;SDS011;2783;48.730;8.006;2022-08-25T14:31:08;3.55;;;1.95;;
5521;SDS011;2783;48.730;8.006;2022-08-25T14:34:03;3.88;;;2.08;;
5521;SDS011;2783;48.730;8.006;2022-08-25T14:36:29;4.60;;;1.75;;
5521;SDS011;2783;48.730;8.006;2022-08-25T14:38:57;4.55;;;2.22;;
5521;SDS011;2783;48.730;8.006;2022-08-25T14:41:23;5.18;;;2.03;;
5521;SDS011;2783;48.730;8.006;2022-08-25T14:43:50;4.30;;;1.88;;
5521;SDS011;2783;48.730;8.006;2022-08-25T14:46:17;3.97;;;2.08;;
5521;SDS011;2783;48.730;8.006;2022-08-25T14:48:45;4.57;;;2.22;;
5521;SDS011;2783;48.730;8.006;2022-08-25T14:51:14;4.72;;;2.03;;
5521;SDS011;2783;48.730;8.006;2022-08-25T14:53:40;3.55;;;1.92;;
5521;SDS011;2783;48.730;8.006;2022-08-25T14:56:07;2.88;;;1.88;;
5521;SDS011;2783;48.730;8.006;2022-08-25T14:58:33;3.15;;;1.90;;
5521;SDS011;2783;48.730;8.006;2022-08-25T15:00:58;5.55;;;1.90;;
5521;SDS011;2783;48.730;8.006;2022-08-25T15:03:28;3.67;;;1.92;;
5521;SDS011;2783;48.730;8.006;2022-08-25T15:05:56;3.17;;;1.95;;
5521;SDS011;2783;48.730;8.006;2022-08-25T15:08:22;3.95;;;1.80;;
5521;SDS011;2783;48.730;8.006;2022-08-25T15:11:06;3.10;;;1.90;;
5521;SDS011;2783;48.730;8.006;2022-08-25T15:13:31;3.47;;;1.80;;
5521;SDS011;2783;48.730;8.006;2022-08-25T15:15:57;3.60;;;1.90;;
5521;SDS011;2783;48.730;8.006;2022-08-25T15:18:22;4.47;;;2.17;;
5521;SDS011;2783;48.730;8.006;2022-08-25T15:20:49;3.63;;;1.88;;
5521;SDS011;2783;48.730;8.006;2022-08-25T15:23:15;3.47;;;1.80;;
5521;SDS011;2783;48.730;8.006;2022-08-25T15:25:42;4.72;;;2.33;;
5521;SDS011;2783;48.730;8.006;2022-08-25T15:28:10;4.30;;;2.08;;
5521;SDS011;2783;48.730;8.006;2022-08-25T15:30:35;5.65;;;2.03;;
5521;SDS011;2783;48.730;8.006;2022-08-25T15:33:01;6.38;;;2.20;;
5521;SDS011;2783;48.730;8.006;2022-08-25T15:35:26;3.17;;;1.75;;
5521;SDS011;2783;48.730;8.006;2022-08-25T15:37:52;3.53;;;2.00;;
5521;SDS011;2783;48.730;8.006;2022-08-25T15:40:17;4.05;;;2.13;;
5521;SDS011;2783;48.730;8.006;2022-08-25T15:42:43;5.85;;;2.17;;
5521;SDS011;2783;48.730;8.006;2022-08-25T15:45:09;4.40;;;2.20;;
5521;SDS011;2783;48.730;8.006;2022-08-25T15:47:35;3.45;;;1.98;;
5521;SDS011;2783;48.730;8.006;2022-08-25T15:50:05;9.27;;;2.83;;
5521;SDS011;2783;48.730;8.006;2022-08-25T15:52:33;3.88;;;2.15;;
5521;SDS011;2783;48.730;8.006;2022-08-25T15:54:58;4.20;;;1.90;;
5521;SDS011;2783;48.730;8.006;2022-08-25T15:57:24;5.35;;;2.35;;
5521;SDS011;2783;48.730;8.006;2022-08-25T15:59:49;3.80;;;2.13;;
5521;SDS011;2783;48.730;8.006;2022-08-25T16:02:16;3.65;;;1.92;;
5521;SDS011;2783;48.730;8.006;2022-08-25T16:04:42;3.67;;;1.98;;
5521;SDS011;2783;48.730;8.006;2022-08-25T16:07:07;4.70;;;1.73;;
5521;SDS011;2783;48.730;8.006;2022-08-25T16:09:32;4.82;;;1.90;;
5521;SDS011;2783;48.730;8.006;2022-08-25T16:11:59;5.30;;;1.98;;
5521;SDS011;2783;48.730;8.006;2022-08-25T16:14:27;5.53;;;2.00;;
5521;SDS011;2783;48.730;8.006;2022-08-25T16:16:52;5.05;;;2.17;;
5521;SDS011;2783;48.730;8.006;2022-08-25T16:19:18;2.70;;;1.58;;
5521;SDS011;2783;48.730;8.006;2022-08-25T16:21:43;4.15;;;2.10;;
5521;SDS011;2783;48.730;8.006;2022-08-25T16:24:09;5.50;;;2.35;;
5521;SDS011;2783;48.730;8.006;2022-08-25T16:26:35;3.53;;;1.67;;
5521;SDS011;2783;48.730;8.006;2022-08-25T16:29:03;4.95;;;2.10;;
5521;SDS011;2783;48.730;8.006;2022-08-25T16:31:29;4.15;;;2.08;;
5521;SDS011;2783;48.730;8.006;2022-08-25T16:33:54;5.28;;;1.98;;
5521;SDS011;2783;48.730;8.006;2022-08-25T16:36:21;4.38;;;2.03;;
5521;SDS011;2783;48.730;8.006;2022-08-25T16:38:48;5.00;;;2.67;;
5521;SDS011;2783;48.730;8.006;2022-08-25T16:41:16;12.15;;;2.42;;
5521;SDS011;2783;48.730;8.006;2022-08-25T16:43:44;6.72;;;2.20;;
5521;SDS011;2783;48.730;8.006;2022-08-25T16:46:11;7.78;;;2.30;;
5521;SDS011;2783;48.730;8.006;2022-08-25T16:48:39;4.55;;;2.10;;
5521;SDS011;2783;48.730;8.006;2022-08-25T16:51:06;4.93;;;1.77;;
5521;SDS011;2783;48.730;8.006;2022-08-25T16:53:32;3.90;;;2.08;;
5521;SDS011;2783;48.730;8.006;2022-08-25T16:56:17;7.13;;;2.80;;
5521;SDS011;2783;48.730;8.006;2022-08-25T16:58:48;4.50;;;2.15;;
5521;SDS011;2783;48.730;8.006;2022-08-25T17:01:14;3.78;;;2.10;;
5521;SDS011;2783;48.730;8.006;2022-08-25T17:03:40;4.85;;;2.03;;
5521;SDS011;2783;48.730;8.006;2022-08-25T17:06:08;7.95;;;2.05;;
5521;SDS011;2783;48.730;8.006;2022-08-25T17:08:34;6.72;;;2.72;;
5521;SDS011;2783;48.730;8.006;2022-08-25T17:13:35;4.57;;;2.10;;
5521;SDS011;2783;48.730;8.006;2022-08-25T17:16:02;6.75;;;2.40;;
5521;SDS011;2783;48.730;8.006;2022-08-25T17:18:27;19.00;;;3.05;;
5521;SDS011;2783;48.730;8.006;2022-08-25T17:20:57;5.72;;;2.75;;
5521;SDS011;2783;48.730;8.006;2022-08-25T17:23:24;6.47;;;2.40;;
5521;SDS011;2783;48.730;8.006;2022-08-25T17:25:49;5.20;;;2.38;;
5521;SDS011;2783;48.730;8.006;2022-08-25T17:28:16;4.97;;;2.10;;
5521;SDS011;2783;48.730;8.006;2022-08-25T17:30:42;5.35;;;2.25;;
5521;SDS011;2783;48.730;8.006;2022-08-25T17:33:08;8.40;;;2.40;;
5521;SDS011;2783;48.730;8.006;2022-08-25T17:35:38;5.53;;;2.20;;
5521;SDS011;2783;48.730;8.006;2022-08-25T17:38:05;11.68;;;2.55;;
5521;SDS011;2783;48.730;8.006;2022-08-25T17:40:30;6.40;;;2.95;;